Time;durP1;ratioP1;P1;durP2;ratioP2;P2;SDS_P1;SDS_P2;PMS_P1;PMS_P2;Temp;Humidity;BMP_temperature;BMP_pressure;BME280_temperature;BME280_humidity;BME280_pressure;Samples;Min_cycle;Max_cycle;Signal;HPM_P1;HPM_P2
2022/01/22 00:00:47;;;;;;;;;;;4.30;98.90;;;3.92;100.00;100622.19;5015773;28;19996;-66
2022/01/22 00:03:13;;;;;;;;;;;4.40;98.90;;;3.85;100.00;100618.13;5014431;28;20298;-66
2022/01/22 00:05:39;;;;;;;;;;;4.30;98.70;;;3.66;100.00;100583.72;5014499;28;19921;-66
2022/01/22 00:08:05;;;;;;;;;;;4.30;98.60;;;3.89;100.00;100612.06;5030958;28;20378;-66
2022/01/22 00:10:32;;;;;;;;;;;4.40;98.70;;;3.82;100.00;100601.16;5014083;28;19921;-66
2022/01/22 00:15:27;;;;;;;;;;;4.40;98.60;;;3.77;100.00;100584.28;4998397;28;19924;-66
2022/01/22 00:17:53;;;;;;;;;;;4.40;98.70;;;3.91;100.00;100614.56;5015628;28;19969;-67
2022/01/22 00:20:20;;;;;;;;;;;4.40;98.70;;;3.93;100.00;100618.78;5014057;28;19917;-66
2022/01/22 00:22:46;;;;;;;;;;;4.40;98.70;;;3.83;100.00;100622.44;5014341;28;19952;-66
2022/01/22 00:25:13;;;;;;;;;;;4.30;98.50;;;3.67;100.00;100578.56;5014192;28;19918;-65
2022/01/22 00:27:40;;;;;;;;;;;4.40;98.60;;;3.82;100.00;100611.38;4997901;28;20000;-66
2022/01/22 00:30:07;;;;;;;;;;;4.40;98.60;;;3.64;100.00;100576.09;5030477;28;19967;-66
2022/01/22 00:32:33;;;;;;;;;;;4.30;98.90;;;3.74;100.00;100609.88;4997409;28;20290;-66
2022/01/22 00:34:59;;;;;;;;;;;4.40;98.60;;;3.91;100.00;100612.84;4997618;28;19925;-66
2022/01/22 00:37:25;;;;;;;;;;;4.40;98.40;;;3.90;100.00;100613.72;5014782;28;20378;-66
2022/01/22 00:39:51;;;;;;;;;;;4.40;98.40;;;3.69;100.00;100578.53;5013868;28;19917;-66
2022/01/22 00:42:17;;;;;;;;;;;4.40;98.40;;;3.93;100.00;100618.78;5013526;28;19917;-66
2022/01/22 00:44:43;;;;;;;;;;;4.40;98.30;;;3.68;100.00;100579.41;5014905;28;20004;-66
2022/01/22 00:47:09;;;;;;;;;;;4.40;98.30;;;3.64;100.00;100571.00;5013714;28;19921;-66
2022/01/22 00:49:35;;;;;;;;;;;4.40;98.40;;;3.72;100.00;100565.69;4997206;28;19921;-66
2022/01/22 00:52:00;;;;;;;;;;;4.40;98.40;;;3.97;100.00;100615.25;5013737;28;19922;-67
2022/01/22 00:54:26;;;;;;;;;;;4.40;98.30;;;3.91;100.00;100610.31;5013517;28;19925;-66
2022/01/22 00:56:52;;;;;;;;;;;4.40;98.40;;;3.93;100.00;100600.06;5014662;28;20367;-66
2022/01/22 00:59:17;;;;;;;;;;;4.40;98.40;;;3.96;100.00;100600.81;5014357;28;19959;-66
2022/01/22 01:01:43;;;;;;;;;;;4.40;98.50;;;3.88;100.00;100600.16;5013374;28;19924;-66
2022/01/22 01:04:11;;;;;;;;;;;4.40;98.60;;;3.67;100.00;100557.31;4997029;28;19913;-66
2022/01/22 01:06:37;;;;;;;;;;;4.40;98.60;;;3.86;100.00;100603.66;4997075;28;19918;-66
2022/01/22 01:09:05;;;;;;;;;;;4.40;98.50;;;3.87;100.00;100598.47;5012942;28;19922;-66
2022/01/22 01:11:34;;;;;;;;;;;4.40;98.50;;;3.99;100.00;100608.41;5014462;28;19921;-66
2022/01/22 01:14:02;;;;;;;;;;;4.40;98.40;;;3.65;100.00;100569.28;5014485;28;19922;-66
2022/01/22 01:35:26;;;;;;;;;;;4.40;98.30;;;3.96;100.00;100622.94;4996862;28;19918;-66
2022/01/22 01:37:54;;;;;;;;;;;4.40;98.40;;;3.87;100.00;100606.13;5012860;28;19918;-67
2022/01/22 01:40:22;;;;;;;;;;;4.40;98.50;;;3.88;100.00;100619.75;5012228;28;20015;-66
2022/01/22 01:45:16;;;;;;;;;;;4.40;98.30;;;3.80;100.00;100602.06;5012759;28;20023;-66
2022/01/22 01:47:45;;;;;;;;;;;4.50;98.30;;;3.85;100.00;100600.25;5012560;28;19957;-66
2022/01/22 01:50:11;;;;;;;;;;;4.50;98.30;;;3.45;100.00;100541.72;5012881;28;20477;-67
2022/01/22 01:52:48;;;;;;;;;;;4.50;98.30;;;4.03;100.00;100630.44;4996112;28;19932;-66
2022/01/22 01:55:21;;;;;;;;;;;4.50;98.40;;;3.95;100.00;100631.50;5012978;28;19917;-67
2022/01/22 01:57:46;;;;;;;;;;;4.50;98.30;;;3.99;100.00;100627.97;5012606;28;19917;-67
2022/01/22 02:00:21;;;;;;;;;;;4.50;98.20;;;3.97;100.00;100625.47;5012415;28;19917;-67
2022/01/22 02:02:47;;;;;;;;;;;4.50;98.30;;;3.97;100.00;100620.34;5013909;28;19929;-67
2022/01/22 02:05:13;;;;;;;;;;;4.50;98.30;;;3.96;100.00;100636.53;5013933;28;20358;-67
2022/01/22 02:07:41;;;;;;;;;;;4.50;98.30;;;4.02;100.00;100636.41;5013944;28;19953;-68
2022/01/22 02:10:08;;;;;;;;;;;4.50;98.20;;;4.01;100.00;100627.06;5012117;28;20055;-67
2022/01/22 02:13:26;;;;;;;;;;;4.50;98.10;;;4.03;100.00;100635.53;5013362;28;20424;-67
2022/01/22 02:23:42;;;;;;;;;;;4.40;98.00;;;4.02;100.00;100630.47;5012282;28;19924;-67
2022/01/22 02:26:09;;;;;;;;;;;4.50;98.20;;;3.93;100.00;100625.59;5013585;28;19921;-67
2022/01/22 02:28:35;;;;;;;;;;;4.50;98.00;;;4.01;100.00;100626.22;4979734;28;19913;-67
2022/01/22 02:31:17;;;;;;;;;;;4.50;98.00;;;3.62;100.00;100559.16;5012417;28;19961;-67
2022/01/22 02:34:06;;;;;;;;;;;4.50;98.00;;;3.93;100.00;100603.44;5012410;28;19918;-67
2022/01/22 02:36:40;;;;;;;;;;;4.40;98.10;;;3.91;100.00;100615.41;4998516;28;19913;-67
2022/01/22 02:39:20;;;;;;;;;;;4.50;98.20;;;4.00;100.00;100622.84;4982153;28;20279;-67
2022/01/22 02:41:48;;;;;;;;;;;4.50;98.20;;;3.72;100.00;100578.44;5028648;28;19917;-67
2022/01/22 02:44:26;;;;;;;;;;;4.50;98.20;;;4.03;100.00;100619.38;4995937;28;20506;-67
2022/01/22 02:46:52;;;;;;;;;;;4.50;98.20;;;4.00;100.00;100607.53;5012467;28;19920;-67
2022/01/22 02:49:18;;;;;;;;;;;4.50;98.20;;;3.76;100.00;100578.34;4995943;28;19948;-67
2022/01/22 02:51:44;;;;;;;;;;;4.50;98.30;;;3.93;100.00;100605.16;4996583;28;19939;-66
2022/01/22 02:54:09;;;;;;;;;;;4.50;98.30;;;4.02;100.00;100599.81;5015868;28;20366;-67
2022/01/22 02:56:35;;;;;;;;;;;4.50;98.30;;;4.06;100.00;100602.25;4999100;28;19922;-66
2022/01/22 02:59:01;;;;;;;;;;;4.50;98.30;;;4.04;100.00;100600.59;5017143;28;19917;-67
2022/01/22 03:01:27;;;;;;;;;;;4.50;98.30;;;4.01;100.00;100601.53;5015565;28;19918;-66
2022/01/22 03:03:53;;;;;;;;;;;4.50;98.30;;;3.80;100.00;100574.00;5015850;28;19967;-67
2022/01/22 03:06:18;;;;;;;;;;;4.50;98.30;;;4.02;100.00;100612.59;5016909;28;19921;-67
2022/01/22 03:08:46;;;;;;;;;;;4.40;98.20;;;3.97;100.00;100605.03;5015010;28;19929;-66
2022/01/22 03:11:28;;;;;;;;;;;4.50;98.40;;;3.75;100.00;100563.06;5016903;28;19941;-67
2022/01/22 03:17:21;;;;;;;;;;;4.50;98.40;;;3.90;100.00;100570.31;5016666;28;20381;-66
2022/01/22 03:22:29;;;;;;;;;;;4.50;98.40;;;4.04;100.00;100596.34;5016697;28;19944;-67
2022/01/22 03:27:39;;;;;;;;;;;4.50;98.40;;;4.02;100.00;100608.31;5015120;28;19924;-66
2022/01/22 03:30:05;;;;;;;;;;;4.50;98.40;;;4.01;100.00;100591.31;5016273;28;20378;-67
2022/01/22 03:32:38;;;;;;;;;;;4.50;98.50;;;4.06;100.00;100602.25;4998722;28;19917;-67
2022/01/22 03:35:13;;;;;;;;;;;4.50;98.50;;;4.02;100.00;100603.22;5016696;28;19963;-67
2022/01/22 03:37:40;;;;;;;;;;;4.50;98.50;;;4.06;100.00;100596.31;5014861;28;20016;-67
2022/01/22 03:40:07;;;;;;;;;;;4.50;98.50;;;3.99;100.00;100585.41;5016133;28;19963;-67
2022/01/22 03:42:34;;;;;;;;;;;4.50;98.50;;;3.95;100.00;100570.22;5014610;28;20338;-67
2022/01/22 03:45:00;;;;;;;;;;;4.50;98.60;;;4.07;100.00;100591.16;5016409;28;19963;-67
2022/01/22 03:47:26;;;;;;;;;;;4.50;98.60;;;4.07;100.00;100583.50;5014780;28;19921;-66
2022/01/22 03:49:51;;;;;;;;;;;4.50;98.60;;;3.93;100.00;100567.72;5016504;28;19917;-67
2022/01/22 03:52:17;;;;;;;;;;;4.50;98.60;;;4.02;100.00;100590.44;4998483;28;19920;-67
2022/01/22 03:54:43;;;;;;;;;;;4.50;98.60;;;3.78;100.00;100552.78;5014643;28;19929;-67
2022/01/22 03:57:09;;;;;;;;;;;4.50;98.60;;;3.99;100.00;100582.03;5014637;28;19917;-67
2022/01/22 03:59:35;;;;;;;;;;;4.50;98.60;;;4.00;100.00;100578.59;5030911;28;19918;-67
2022/01/22 04:04:47;;;;;;;;;;;4.40;98.80;;;3.78;100.00;100542.59;5014441;28;19917;-66
2022/01/22 04:09:43;;;;;;;;;;;4.50;98.80;;;3.90;100.00;100559.28;5014036;28;19984;-67
2022/01/22 04:12:15;;;;;;;;;;;4.50;98.80;;;3.69;100.00;100522.41;5015805;28;19928;-67
2022/01/22 04:14:54;;;;;;;;;;;4.50;98.80;;;3.98;100.00;100565.03;5015391;28;20007;-66
2022/01/22 04:25:19;;;;;;;;;;;4.50;98.50;;;4.02;100.00;100561.53;5015414;28;19925;-67
2022/01/22 04:27:45;;;;;;;;;;;4.50;98.50;;;4.05;100.00;100575.03;5014266;28;20302;-66
2022/01/22 04:30:11;;;;;;;;;;;4.50;98.50;;;3.94;100.00;100566.00;5014015;28;19975;-67
2022/01/22 04:32:36;;;;;;;;;;;4.50;98.40;;;3.86;100.00;100555.16;4997294;28;19924;-67
2022/01/22 04:35:02;;;;;;;;;;;4.40;98.50;;;3.97;100.00;100573.56;5014204;28;20373;-67
2022/01/22 04:37:28;;;;;;;;;;;4.40;98.60;;;3.95;100.00;100570.22;5013688;28;19921;-66
2022/01/22 04:39:54;;;;;;;;;;;4.50;99.00;;;3.83;100.00;100549.22;5030470;28;19917;-67
2022/01/22 04:42:20;;;;;;;;;;;4.50;98.80;;;3.90;100.00;100567.78;5015092;28;20278;-67
2022/01/22 04:44:57;;;;;;;;;;;4.40;98.60;;;3.96;100.00;100567.59;5013718;28;20055;-67
2022/01/22 04:54:57;;;;;;;;;;;4.50;98.80;;;3.97;100.00;100579.50;5000077;28;19920;-67
2022/01/22 04:55:27;;;;;;;;;;;4.40;98.80;;;4.01;100.00;100585.38;5013686;28;19974;-66
2022/01/22 04:57:53;;;;;;;;;;;4.40;98.90;;;3.93;100.00;100580.47;5014549;28;19951;-67
2022/01/22 05:00:19;;;;;;;;;;;4.50;98.90;;;3.97;100.00;100587.16;5013381;28;19917;-67
2022/01/22 05:02:44;;;;;;;;;;;4.50;98.80;;;3.95;100.00;100586.38;5014370;28;19921;-66
2022/01/22 05:05:11;;;;;;;;;;;4.40;98.70;;;3.96;100.00;100580.38;5014782;28;19924;-67
2022/01/22 05:07:36;;;;;;;;;;;4.50;98.70;;;3.73;100.00;100535.03;5014433;28;19972;-67
2022/01/22 05:10:03;;;;;;;;;;;4.50;98.80;;;3.94;100.00;100573.66;4996809;28;20382;-67
2022/01/22 05:12:29;;;;;;;;;;;4.50;98.80;;;4.02;100.00;100595.56;5013331;28;20438;-66
2022/01/22 05:14:54;;;;;;;;;;;4.50;98.80;;;3.70;100.00;100530.03;5013870;28;19917;-67
2022/01/22 05:17:20;;;;;;;;;;;4.50;98.80;;;3.78;100.00;100547.69;5013267;28;19917;-66
2022/01/22 05:25:06;;;;;;;;;;;4.60;98.80;;;4.08;100.00;100592.00;5013360;28;20034;-67
2022/01/22 05:38:28;;;;;;;;;;;4.60;98.70;;;4.16;100.00;100605.41;5013953;28;20294;-67
2022/01/22 05:40:54;;;;;;;;;;;4.60;98.60;;;4.06;100.00;100592.03;5013706;28;19918;-67
2022/01/22 05:43:19;;;;;;;;;;;4.60;98.60;;;4.10;100.00;100595.34;5014213;28;20321;-67
2022/01/22 05:45:45;;;;;;;;;;;4.60;98.50;;;4.12;100.00;100604.63;4996229;28;19923;-66
2022/01/22 05:48:11;;;;;;;;;;;4.60;98.40;;;4.20;100.00;100618.03;5012728;28;19918;-68
2022/01/22 05:53:17;;;;;;;;;;;4.60;98.50;;;4.00;100.00;100583.69;5012680;28;19967;-67
2022/01/22 06:01:12;;;;;;;;;;;4.70;98.40;;;4.04;100.00;100587.84;5013751;28;19924;-67
2022/01/22 06:03:37;;;;;;;;;;;4.70;98.40;;;3.98;100.00;100599.06;5013448;28;20309;-67
2022/01/22 06:06:03;;;;;;;;;;;4.70;98.30;;;4.22;100.00;100620.56;5012407;28;19918;-67
2022/01/22 06:08:31;;;;;;;;;;;4.70;98.30;;;4.23;100.00;100622.25;5012675;28;19983;-67
2022/01/22 06:10:59;;;;;;;;;;;4.70;98.30;;;4.25;100.00;100630.69;5013545;28;19953;-67
2022/01/22 06:13:43;;;;;;;;;;;4.70;98.30;;;4.19;100.00;100638.53;5013666;28;19917;-67
2022/01/22 06:16:12;;;;;;;;;;;4.70;98.30;;;3.90;100.00;100585.66;5012707;28;19921;-67
2022/01/22 06:18:38;;;;;;;;;;;4.70;98.30;;;4.26;100.00;100626.44;5011935;28;19917;-67
2022/01/22 06:21:04;;;;;;;;;;;4.70;98.30;;;4.20;100.00;100632.53;5012381;28;19925;-67
2022/01/22 06:23:30;;;;;;;;;;;4.70;98.20;;;4.18;100.00;100619.81;5013656;28;20290;-67
2022/01/22 06:26:00;;;;;;;;;;;4.70;98.20;;;4.20;100.00;100633.38;4997697;28;19924;-66
2022/01/22 06:28:27;;;;;;;;;;;4.70;98.30;;;4.07;100.00;100605.63;5017005;28;19924;-67
2022/01/22 06:30:52;;;;;;;;;;;4.70;98.40;;;4.25;100.00;100646.03;5000073;28;20003;-67
2022/01/22 06:33:18;;;;;;;;;;;4.70;98.40;;;4.22;100.00;100643.53;5016212;28;19921;-67
2022/01/22 06:35:44;;;;;;;;;;;4.70;98.40;;;4.22;100.00;100646.09;4999792;28;20286;-67
2022/01/22 06:38:10;;;;;;;;;;;4.70;98.40;;;4.26;100.00;100649.44;5016099;28;19922;-66
2022/01/22 06:43:02;;;;;;;;;;;4.70;98.40;;;3.96;100.00;100608.47;5016051;28;19968;-66
2022/01/22 06:45:27;;;;;;;;;;;4.70;98.50;;;4.19;100.00;100649.59;5017135;28;19923;-66
2022/01/22 06:47:53;;;;;;;;;;;4.60;98.50;;;4.17;100.00;100647.94;5016908;28;20276;-66
2022/01/22 06:50:20;;;;;;;;;;;4.60;98.40;;;4.18;100.00;100654.75;5017330;28;20252;-67
2022/01/22 06:52:46;;;;;;;;;;;4.70;98.40;;;4.19;100.00;100651.31;4999449;28;19923;-66
2022/01/22 06:55:15;;;;;;;;;;;4.70;98.50;;;4.22;100.00;100663.97;5015946;28;19913;-66
2022/01/22 06:57:41;;;;;;;;;;;4.70;98.50;;;4.18;100.00;100659.84;4999580;28;20317;-66
2022/01/22 07:00:07;;;;;;;;;;;4.70;98.50;;;4.20;100.00;100656.34;5015574;28;19924;-67
2022/01/22 07:02:33;;;;;;;;;;;4.70;98.50;;;4.21;100.00;100652.94;5015480;28;19918;-67
2022/01/22 07:04:59;;;;;;;;;;;4.70;98.60;;;4.12;100.00;100635.28;5015493;28;19928;-67
2022/01/22 07:07:25;;;;;;;;;;;4.70;98.60;;;4.19;100.00;100649.59;5015694;28;19929;-66
2022/01/22 07:09:50;;;;;;;;;;;4.70;98.50;;;4.25;100.00;100653.69;5016250;28;19921;-66
2022/01/22 07:12:16;;;;;;;;;;;4.80;98.50;;;4.31;100.00;100657.78;5031993;28;20260;-67
2022/01/22 07:14:45;;;;;;;;;;;4.70;98.40;;;4.29;100.00;100652.72;5016469;28;19921;-66
2022/01/22 07:17:12;;;;;;;;;;;4.70;98.40;;;4.26;100.00;100654.53;4999465;28;19921;-67
2022/01/22 07:19:40;;;;;;;;;;;4.70;98.40;;;4.27;100.00;100648.56;5015391;28;19918;-66
2022/01/22 07:22:20;;;;;;;;;;;4.70;98.40;;;4.32;100.00;100664.59;5015842;28;19921;-67
2022/01/22 07:24:46;;;;;;;;;;;4.80;98.50;;;4.31;100.00;100673.13;5016373;28;19924;-66
2022/01/22 07:27:12;;;;;;;;;;;4.80;98.40;;;4.28;100.00;100665.56;5015167;28;19917;-66
2022/01/22 07:29:37;;;;;;;;;;;4.80;98.40;;;4.26;100.00;100663.03;5016084;28;20287;-66
2022/01/22 07:32:09;;;;;;;;;;;4.80;98.40;;;4.18;100.00;100665.78;5016697;28;19964;-66
2022/01/22 07:34:34;;;;;;;;;;;4.70;98.20;;;3.86;100.00;100603.66;5015332;28;19913;-66
2022/01/22 07:37:02;;;;;;;;;;;4.70;98.20;;;4.31;100.00;100681.63;5014154;28;19924;-67
2022/01/22 07:39:28;;;;;;;;;;;4.80;98.40;;;4.34;100.00;100688.38;5016125;28;20410;-66
2022/01/22 07:41:53;;;;;;;;;;;4.80;98.30;;;4.26;100.00;100673.25;5014927;28;19918;-66
2022/01/22 07:44:19;;;;;;;;;;;4.80;98.20;;;4.06;100.00;100635.44;5016559;28;19919;-66
2022/01/22 07:46:45;;;;;;;;;;;4.80;98.20;;;4.31;100.00;100666.31;5016025;28;19917;-66
2022/01/22 07:49:11;;;;;;;;;;;4.80;98.40;;;4.32;100.00;100670.53;5014886;28;20370;-66
2022/01/22 07:51:36;;;;;;;;;;;4.80;98.40;;;4.32;100.00;100682.47;4998880;28;19925;-66
2022/01/22 07:54:02;;;;;;;;;;;4.80;98.40;;;4.32;100.00;100679.91;5014797;28;19924;-66
2022/01/22 07:56:28;;;;;;;;;;;4.80;98.40;;;4.36;100.00;100678.97;5015761;28;20382;-66
2022/01/22 07:58:56;;;;;;;;;;;4.80;98.30;;;4.34;100.00;100676.44;5015641;28;19926;-66
2022/01/22 08:01:22;;;;;;;;;;;4.80;98.40;;;4.34;100.00;100680.72;5015956;28;20359;-66
2022/01/22 08:03:50;;;;;;;;;;;4.80;98.30;;;4.42;100.00;100671.13;5015992;28;19917;-66
2022/01/22 08:06:16;;;;;;;;;;;4.80;98.30;;;4.40;100.00;100671.19;5014964;28;19917;-67
2022/01/22 08:08:42;;;;;;;;;;;4.90;98.20;;;4.35;100.00;100662.81;5015155;28;19922;-66
2022/01/22 08:11:08;;;;;;;;;;;4.90;98.00;;;4.42;100.00;100668.59;5015639;28;19923;-66
2022/01/22 08:13:33;;;;;;;;;;;4.90;98.10;;;4.13;100.00;100626.75;5031176;28;19924;-66
2022/01/22 08:15:59;;;;;;;;;;;4.90;98.10;;;4.35;100.00;100664.53;5014450;28;19940;-66
2022/01/22 08:18:25;;;;;;;;;;;4.90;97.90;;;4.40;100.00;100672.88;5014282;28;19944;-67
2022/01/22 08:20:51;;;;;;;;;;;4.80;97.80;;;4.33;100.00;100679.88;5030683;28;19964;-66
2022/01/22 08:23:18;;;;;;;;;;;4.90;98.00;;;4.16;100.00;100636.91;5014461;28;20004;-67
2022/01/22 08:25:46;;;;;;;;;;;4.90;97.90;;;4.51;100.00;100691.34;5013793;28;19917;-66
2022/01/22 08:31:02;;;;;;;;;;;5.00;97.80;;;4.51;100.00;100704.97;5014093;28;20006;-67
2022/01/22 08:35:52;;;;;;;;;;;5.00;97.80;;;4.52;100.00;100703.25;5015377;28;19917;-66
2022/01/22 08:36:16;;;;;;;;;;;5.00;97.80;;;4.50;100.00;100712.66;5015420;28;19924;-67
2022/01/22 08:38:42;;;;;;;;;;;5.00;97.70;;;4.47;100.00;100699.97;5013860;28;19917;-66
2022/01/22 08:41:09;;;;;;;;;;;5.00;97.60;;;4.48;100.00;100699.91;5015105;28;19976;-67
2022/01/22 08:43:35;;;;;;;;;;;5.00;97.60;;;4.44;100.00;100692.38;5014963;28;20280;-67
2022/01/22 08:46:02;;;;;;;;;;;5.00;97.40;;;4.58;100.00;100698.81;5013523;28;19921;-67
2022/01/22 08:48:28;;;;;;;;;;;5.10;97.50;;;4.31;100.00;100660.34;5013303;28;19921;-67
2022/01/22 08:50:54;;;;;;;;;;;5.10;97.60;;;4.59;100.00;100702.19;5012718;28;20325;-68
2022/01/22 08:53:20;;;;;;;;;;;5.10;97.60;;;4.56;100.00;100702.28;5013676;28;19917;-67
2022/01/22 08:55:46;;;;;;;;;;;5.10;97.60;;;4.55;100.00;100690.38;4981011;28;19914;-66
2022/01/22 08:58:13;;;;;;;;;;;5.10;97.60;;;4.61;100.00;100690.22;5014665;28;20290;-67
2022/01/22 09:00:39;;;;;;;;;;;5.10;97.70;;;4.60;100.00;100675.78;5013653;28;20125;-67
2022/01/22 09:03:05;;;;;;;;;;;5.10;97.70;;;4.24;100.00;100629.03;5014385;28;19941;-68
2022/01/22 09:05:35;;;;;;;;;;;5.20;97.60;;;4.59;100.00;100700.47;4997062;28;20374;-67
2022/01/22 09:08:01;;;;;;;;;;;5.20;97.40;;;4.48;100.00;100669.25;5013315;28;19918;-67
2022/01/22 09:10:26;;;;;;;;;;;5.20;97.40;;;4.69;100.00;100710.47;4996939;28;20298;-66
2022/01/22 09:12:52;;;;;;;;;;;5.20;97.40;;;4.38;100.00;100670.38;5014320;28;20032;-66
2022/01/22 09:15:18;;;;;;;;;;;5.20;97.30;;;4.67;100.00;100717.34;5014649;28;19923;-66
2022/01/22 09:17:47;;;;;;;;;;;5.20;97.40;;;4.71;100.00;100722.31;5012815;28;19918;-66
2022/01/22 09:20:19;;;;;;;;;;;5.20;97.40;;;4.72;100.00;100721.44;5014715;28;19988;-67
2022/01/22 09:22:45;;;;;;;;;;;5.30;97.40;;;4.79;100.00;100717.81;5014253;28;19918;-66
2022/01/22 09:25:15;;;;;;;;;;;5.30;97.40;;;4.82;100.00;100719.47;5013371;28;20413;-66
2022/01/22 09:27:41;;;;;;;;;;;5.30;97.40;;;4.77;100.00;100726.44;5013005;28;19918;-66
2022/01/22 09:30:07;;;;;;;;;;;5.30;97.40;;;4.86;100.00;100727.00;4996419;28;19917;-67
2022/01/22 09:32:33;;;;;;;;;;;5.30;97.40;;;4.94;100.00;100730.19;5014025;28;20370;-66
2022/01/22 09:34:58;;;;;;;;;;;5.40;97.60;;;4.93;100.00;100730.25;5014023;28;19921;-66
2022/01/22 09:37:24;;;;;;;;;;;5.40;97.70;;;4.80;100.00;100714.41;5014082;28;19936;-66
2022/01/22 09:39:50;;;;;;;;;;;5.50;97.70;;;4.85;100.00;100738.13;5012563;28;19975;-66
2022/01/22 09:42:16;;;;;;;;;;;5.40;97.60;;;4.90;100.00;100740.56;5012849;28;19917;-67
2022/01/22 09:44:42;;;;;;;;;;;5.40;97.50;;;4.80;100.00;100737.41;5029306;28;19924;-67
2022/01/22 09:47:08;;;;;;;;;;;5.40;97.60;;;4.79;100.00;100730.59;4996382;28;19918;-67
2022/01/22 09:49:34;;;;;;;;;;;5.40;97.60;;;4.92;100.00;100754.16;5013054;28;19913;-67
2022/01/22 09:52:00;;;;;;;;;;;5.40;97.40;;;4.93;100.00;100743.88;5012678;28;20264;-67
2022/01/22 09:54:26;;;;;;;;;;;5.40;97.40;;;5.01;100.00;100745.38;5014044;28;19917;-66
2022/01/22 09:56:52;;;;;;;;;;;5.40;97.40;;;5.00;100.00;100753.94;5013525;28;19917;-67
2022/01/22 09:59:17;;;;;;;;;;;5.50;97.50;;;4.94;100.00;100752.41;5012537;28;19917;-67
2022/01/22 10:01:43;;;;;;;;;;;5.40;97.50;;;4.75;100.00;100723.91;5013276;28;19917;-67
2022/01/22 10:04:09;;;;;;;;;;;5.50;97.70;;;4.98;100.00;100761.66;5012466;28;19991;-67
2022/01/22 10:06:47;;;;;;;;;;;5.50;97.80;;;4.74;100.00;100729.91;5012668;28;20324;-67
2022/01/22 10:09:15;;;;;;;;;;;5.50;97.70;;;4.78;100.00;100743.44;5013518;28;19922;-67
2022/01/22 10:11:41;;;;;;;;;;;5.50;97.70;;;4.89;100.00;100752.50;5013576;28;20363;-67
2022/01/22 10:14:07;;;;;;;;;;;5.50;97.80;;;5.02;100.00;100754.75;5012101;28;20318;-67
2022/01/22 10:16:37;;;;;;;;;;;5.50;97.90;;;4.95;100.00;100754.88;5012712;28;19918;-67
2022/01/22 10:19:14;;;;;;;;;;;5.50;97.90;;;5.02;100.00;100754.75;4996692;28;19918;-68
2022/01/22 10:21:42;;;;;;;;;;;5.50;97.90;;;4.82;100.00;100722.88;4996795;28;20291;-68
2022/01/22 10:24:38;;;;;;;;;;;5.60;97.90;;;5.07;100.00;100753.72;5013351;28;20003;-69
2022/01/22 10:30:11;;;;;;;;;;;5.60;97.60;;;4.99;100.00;100737.75;5012272;28;19975;-71
2022/01/22 10:33:04;;;;;;;;;;;5.60;97.70;;;5.08;100.00;100749.44;5012316;28;20375;-68
2022/01/22 10:35:33;;;;;;;;;;;5.60;97.80;;;5.03;100.00;100735.94;5016094;28;20294;-70
2022/01/22 10:38:01;;;;;;;;;;;5.60;98.10;;;5.09;100.00;100748.56;5012048;28;20278;-78
2022/01/22 10:40:34;;;;;;;;;;;5.60;97.70;;;5.08;100.00;100736.66;4995980;28;20350;-74
2022/01/22 10:43:16;;;;;;;;;;;5.60;97.60;;;5.20;100.00;100737.13;5012079;28;19923;-76
2022/01/22 10:47:03;;;;;;;;;;;5.70;97.80;;;5.25;100.00;100742.13;5013099;28;19913;-76
2022/01/22 10:49:07;;;;;;;;;;;5.70;97.80;;;5.34;100.00;100731.63;5002360;28;20393;-75
2022/01/22 10:52:04;;;;;;;;;;;5.80;97.70;;;5.29;100.00;100706.16;5028476;28;19917;-76
2022/01/22 10:54:34;;;;;;;;;;;5.90;97.50;;;5.16;100.00;100683.56;5013474;28;20298;-77
2022/01/22 10:57:15;;;;;;;;;;;5.90;97.50;;;5.50;100.00;100714.94;5013035;28;19922;-76
2022/01/22 10:59:48;;;;;;;;;;;6.00;97.70;;;5.63;100.00;100705.16;4995755;28;20349;-78
2022/01/22 11:02:14;;;;;;;;;;;6.10;97.40;;;5.74;100.00;100711.63;5011902;28;20310;-77
2022/01/22 11:04:43;;;;;;;;;;;6.20;97.20;;;5.54;100.00;100670.44;5013586;28;19960;-75
2022/01/22 11:07:19;;;;;;;;;;;6.30;97.20;;;5.92;100.00;100707.69;4995292;28;20480;-72
2022/01/22 11:09:45;;;;;;;;;;;6.40;97.00;;;5.81;100.00;100673.84;5011789;28;19921;-77
2022/01/22 11:12:11;;;;;;;;;;;6.50;96.80;;;5.78;100.00;100660.28;4995345;28;19921;-77
2022/01/22 11:14:37;;;;;;;;;;;6.60;96.50;;;5.94;100.00;100682.00;5016821;28;20270;-73
2022/01/22 11:17:05;;;;;;;;;;;6.70;96.40;;;6.24;100.00;100728.88;5015357;28;20413;-75
2022/01/22 11:19:32;;;;;;;;;;;6.80;96.20;;;6.13;100.00;100715.56;5016509;28;19917;-72
2022/01/22 11:22:12;;;;;;;;;;;6.90;95.90;;;5.94;100.00;100689.69;5015009;28;19922;-70
2022/01/22 11:24:42;;;;;;;;;;;6.90;95.60;;;6.16;100.00;100718.03;5015381;28;19913;-71
2022/01/22 11:27:09;;;;;;;;;;;6.80;95.30;;;6.20;100.00;100722.16;5014939;28;19976;-70
2022/01/22 11:29:58;;;;;;;;;;;6.90;95.30;;;6.29;100.00;100729.53;5016547;28;19924;-76
2022/01/22 11:32:28;;;;;;;;;;;6.90;95.10;;;6.18;100.00;100724.75;5015208;28;19921;-73
2022/01/22 11:34:57;;;;;;;;;;;6.90;94.90;;;5.87;100.00;100678.78;4999032;28;20438;-71
2022/01/22 11:37:47;;;;;;;;;;;6.90;94.90;;;6.07;100.00;100729.41;4998632;28;19966;-75
2022/01/22 11:40:13;;;;;;;;;;;6.80;94.90;;;6.01;100.00;100732.97;5016047;28;19968;-73
2022/01/22 11:43:23;;;;;;;;;;;6.70;95.00;;;6.06;100.00;100733.69;5014908;28;19917;-76
2022/01/22 11:45:53;;;;;;;;;;;6.70;95.20;;;6.05;100.00;100713.25;5015883;28;19917;-74
2022/01/22 11:48:18;;;;;;;;;;;6.70;95.10;;;6.07;100.00;100730.25;5015106;28;19917;-73
2022/01/22 11:50:46;;;;;;;;;;;6.70;95.20;;;6.17;100.00;100719.69;5016224;28;20004;-73
2022/01/22 11:53:29;;;;;;;;;;;6.70;95.40;;;6.11;100.00;100707.91;5014823;28;20405;-75
2022/01/22 11:56:10;;;;;;;;;;;6.70;95.40;;;6.21;100.00;100716.97;5014652;28;19913;-76
2022/01/22 11:59:05;;;;;;;;;;;6.80;95.60;;;6.41;100.00;100713.75;5016007;28;19913;-74
2022/01/22 12:01:39;;;;;;;;;;;6.90;95.70;;;6.57;100.00;100708.94;5015972;28;19968;-73
2022/01/22 12:04:06;;;;;;;;;;;7.00;95.50;;;6.50;100.00;100700.63;5015496;28;19920;-68
2022/01/22 12:06:32;;;;;;;;;;;7.10;95.20;;;6.31;100.00;100673.94;5014975;28;20017;-67
2022/01/22 12:09:15;;;;;;;;;;;7.20;94.90;;;6.47;100.00;100705.84;5015236;28;19921;-67
2022/01/22 12:14:54;;;;;;;;;;;7.10;94.20;;;6.29;100.00;100715.00;5001591;28;19940;-78
2022/01/22 12:17:40;;;;;;;;;;;7.10;94.20;;;6.23;100.00;100717.78;4998755;28;19983;-75
2022/01/22 12:20:19;;;;;;;;;;;7.00;94.40;;;6.13;100.00;100703.56;5000102;28;20355;-68
2022/01/22 12:22:44;;;;;;;;;;;6.90;94.60;;;6.17;100.00;100707.72;5014013;28;19940;-69
2022/01/22 12:25:16;;;;;;;;;;;6.90;94.60;;;6.13;100.00;100705.31;5013285;28;20004;-68
2022/01/22 12:27:52;;;;;;;;;;;6.80;94.70;;;6.02;100.00;100682.59;5015120;28;20405;-69
2022/01/22 12:30:38;;;;;;;;;;;6.80;94.70;;;5.94;100.00;100674.31;5013577;28;19921;-69
2022/01/22 12:33:07;;;;;;;;;;;6.80;94.90;;;6.10;100.00;100716.47;4997845;28;20377;-70
2022/01/22 12:35:34;;;;;;;;;;;6.70;94.90;;;6.07;100.00;100721.72;5014821;28;20390;-70
2022/01/22 12:38:29;;;;;;;;;;;6.70;95.00;;;6.05;100.00;100713.25;5014890;28;19917;-68
2022/01/22 12:41:13;;;;;;;;;;;6.70;95.20;;;6.04;100.00;100729.50;5013463;28;19921;-62
2022/01/22 12:43:40;;;;;;;;;;;6.60;95.10;;;6.08;100.00;100728.53;4999712;28;19963;-67
2022/01/22 12:46:05;;;;;;;;;;;6.60;95.00;;;5.98;100.00;100732.25;5013192;28;19917;-68
2022/01/22 12:48:36;;;;;;;;;;;6.60;95.00;;;5.98;100.00;100734.81;5013514;28;20379;-68
2022/01/22 12:51:03;;;;;;;;;;;6.50;95.10;;;5.91;100.00;100735.91;5013248;28;19925;-69
2022/01/22 12:53:28;;;;;;;;;;;6.50;95.30;;;5.82;100.00;100726.75;4981126;28;19917;-68
2022/01/22 12:58:24;;;;;;;;;;;6.40;95.50;;;5.88;100.00;100726.59;5014171;28;19917;-68
2022/01/22 13:00:52;;;;;;;;;;;6.40;95.40;;;5.85;100.00;100731.75;5013184;28;19964;-69
2022/01/22 13:03:31;;;;;;;;;;;6.40;95.60;;;5.83;100.00;100727.59;5014335;28;19917;-69